Time;durP1;ratioP1;P1;durP2;ratioP2;P2;SDS_P1;SDS_P2;PMS_P1;PMS_P2;Temp;Humidity;BMP_temperature;BMP_pressure;BME280_temperature;BME280_humidity;BME280_pressure;Samples;Min_cycle;Max_cycle;Signal;HPM_P1;HPM_P2
2023/04/06 00:00:09;;;;;;;47.50;21.50;;;;;;;1.84;100.00;101913.75;5115050;28;20461;-70
2023/04/06 00:02:35;;;;;;;48.08;21.85;;;;;;;1.82;100.00;101898.97;5096055;28;20481;-70
2023/04/06 00:05:00;;;;;;;49.22;22.73;;;;;;;1.78;100.00;101903.50;5114801;28;20042;-70
2023/04/06 00:07:26;;;;;;;49.88;22.52;;;;;;;1.74;100.00;101907.97;5114641;28;20119;-70
2023/04/06 00:09:51;;;;;;;48.22;21.02;;;;;;;1.69;100.00;101903.84;5114579;28;20237;-72
2023/04/06 00:12:17;;;;;;;43.60;19.67;;;;;;;1.64;100.00;101900.50;5114782;28;20472;-72
2023/04/06 00:14:42;;;;;;;46.60;20.85;;;;;;;1.59;100.00;101893.66;5114451;28;20028;-69
2023/04/06 00:17:08;;;;;;;52.65;23.98;;;;;;;1.56;100.00;101887.66;5114859;28;20451;-70
2023/04/06 00:19:33;;;;;;;50.30;22.05;;;;;;;1.53;100.00;101885.16;5114129;28;20028;-69
2023/04/06 00:21:59;;;;;;;42.45;21.08;;;;;;;1.48;100.00;101884.44;5114611;28;20020;-70
2023/04/06 00:24:24;;;;;;;50.95;24.20;;;;;;;1.45;100.00;101881.94;5114604;28;20492;-70
2023/04/06 00:26:50;;;;;;;45.97;23.77;;;;;;;1.39;100.00;101873.38;5114400;28;20058;-71
2023/04/06 00:29:15;;;;;;;46.03;22.95;;;;;;;1.37;100.00;101869.97;5114689;28;20115;-71
2023/04/06 00:31:40;;;;;;;42.22;19.98;;;;;;;1.32;100.00;101874.50;5114069;28;20027;-70
2023/04/06 00:34:06;;;;;;;42.45;20.75;;;;;;;1.30;100.00;101864.97;5114405;28;20465;-74
2023/04/06 00:36:31;;;;;;;41.25;21.13;;;;;;;1.26;100.00;101860.78;5113436;28;20032;-70
2023/04/06 00:38:57;;;;;;;42.70;20.92;;;;;;;1.25;100.00;101857.28;5113804;28;20043;-70
2023/04/06 00:41:22;;;;;;;45.47;21.38;;;;;;;1.23;100.00;101857.34;5114201;28;20032;-70
2023/04/06 00:43:48;;;;;;;49.47;23.58;;;;;;;1.22;100.00;101849.50;5095580;28;20039;-70
2023/04/06 00:46:13;;;;;;;43.97;20.77;;;;;;;1.20;100.00;101853.97;5114020;28;20111;-70
2023/04/06 00:48:39;;;;;;;50.10;23.02;;;;;;;1.20;100.00;101843.47;5113583;28;20039;-69
2023/04/06 00:51:04;;;;;;;44.58;21.98;;;;;;;1.20;100.00;101848.72;5113807;28;20055;-72
2023/04/06 00:53:30;;;;;;;46.20;23.10;;;;;;;1.19;100.00;101834.75;5113984;28;20067;-72
2023/04/06 00:55:55;;;;;;;52.15;23.50;;;;;;;1.20;100.00;101828.59;5113479;28;20118;-71
2023/04/06 00:58:21;;;;;;;46.67;22.80;;;;;;;1.22;100.00;101837.28;5095465;28;20024;-71
2023/04/06 01:00:47;;;;;;;46.85;22.48;;;;;;;1.23;100.00;101832.88;5113382;28;20181;-72
2023/04/06 01:03:12;;;;;;;48.42;22.85;;;;;;;1.26;100.00;101827.53;5113657;28;20118;-71
2023/04/06 01:05:40;;;;;;;45.13;22.30;;;;;;;1.28;100.00;101825.69;5113849;28;20504;-72
2023/04/06 01:08:06;;;;;;;47.85;22.50;;;;;;;1.31;100.00;101825.59;5113603;28;20483;-71
2023/04/06 01:10:32;;;;;;;42.38;21.92;;;;;;;1.34;100.00;101820.22;5114117;28;20032;-70
2023/04/06 01:12:57;;;;;;;46.40;21.73;;;;;;;1.37;100.00;101814.03;5113427;28;20031;-72
2023/04/06 01:15:24;;;;;;;45.28;22.40;;;;;;;1.39;100.00;101805.19;5113646;28;20034;-71
2023/04/06 01:17:50;;;;;;;40.63;21.27;;;;;;;1.41;100.00;101808.59;5112965;28;20039;-70
2023/04/06 01:20:15;;;;;;;43.45;20.92;;;;;;;1.46;100.00;101794.47;5113291;28;20028;-71
2023/04/06 01:22:41;;;;;;;43.95;22.58;;;;;;;1.49;100.00;101791.75;5112958;28;20161;-71
2023/04/06 01:25:07;;;;;;;50.88;22.80;;;;;;;1.52;100.00;101796.88;5113526;28;20020;-71
2023/04/06 01:27:32;;;;;;;44.60;21.48;;;;;;;1.55;100.00;101791.50;5113549;28;20047;-70
2023/04/06 01:29:58;;;;;;;43.88;21.95;;;;;;;1.58;100.00;101791.38;5094544;28;20032;-70
2023/04/06 01:32:24;;;;;;;42.42;22.15;;;;;;;1.63;100.00;101792.09;5113215;28;20457;-70
2023/04/06 01:34:49;;;;;;;41.40;21.70;;;;;;;1.71;100.00;101786.53;5112777;28;20042;-70
2023/04/06 01:37:14;;;;;;;41.60;20.42;;;;;;;1.74;100.00;101778.56;5095207;28;20526;-71
2023/04/06 01:39:42;;;;;;;36.72;19.33;;;;;;;1.79;100.00;101778.38;5112970;28;20034;-70
2023/04/06 01:42:07;;;;;;;32.03;18.70;;;;;;;1.84;100.00;101777.28;5112920;28;20481;-70
2023/04/06 01:44:33;;;;;;;32.72;17.85;;;;;;;1.92;100.00;101769.09;5112887;28;20023;-70
2023/04/06 01:46:58;;;;;;;32.33;17.95;;;;;;;1.99;100.00;101770.56;5112477;28;20043;-71
2023/04/06 01:49:23;;;;;;;28.55;16.92;;;;;;;2.06;100.00;101771.16;5112826;28;20028;-70
2023/04/06 01:51:49;;;;;;;27.27;16.00;;;;;;;2.13;100.00;101763.91;5112578;28;20366;-70
2023/04/06 01:54:14;;;;;;;24.10;14.48;;;;;;;2.21;100.00;101767.06;5112809;28;20097;-70
2023/04/06 01:56:40;;;;;;;22.27;13.65;;;;;;;2.31;100.00;101763.16;5113127;28;20027;-71
2023/04/06 01:59:06;;;;;;;24.25;13.10;;;;;;;2.40;100.00;101754.91;5112433;28;20084;-71
2023/04/06 02:01:31;;;;;;;23.73;13.25;;;;;;;2.51;100.00;101750.97;5112591;28;20084;-71
2023/04/06 02:03:56;;;;;;;21.08;12.35;;;;;;;2.63;100.00;101751.31;5094026;28;20050;-70
2023/04/06 02:06:22;;;;;;;22.40;13.48;;;;;;;2.72;100.00;101749.22;5112560;28;20028;-70
2023/04/06 02:08:47;;;;;;;19.55;13.43;;;;;;;2.79;100.00;101737.50;5112207;28;20035;-70
2023/04/06 02:11:13;;;;;;;21.02;12.55;;;;;;;2.90;100.00;101734.44;5112694;28;20042;-70
2023/04/06 02:13:38;;;;;;;20.67;11.98;;;;;;;2.98;100.00;101734.94;5112490;28;20038;-70
2023/04/06 02:16:04;;;;;;;25.05;12.57;;;;;;;3.02;100.00;101733.03;5112003;28;20031;-69
2023/04/06 02:18:30;;;;;;;16.20;11.57;;;;;;;3.07;100.00;101725.78;5112222;28;20501;-72
2023/04/06 02:20:56;;;;;;;21.00;11.20;;;;;;;3.13;100.00;101731.59;5093774;28;20123;-69
2023/04/06 02:23:21;;;;;;;21.85;12.02;;;;;;;3.20;100.00;101723.47;5094607;28;20059;-69
2023/04/06 02:25:47;;;;;;;21.50;11.82;;;;;;;3.24;100.00;101723.25;5112685;28;20032;-69
2023/04/06 02:28:12;;;;;;;19.92;12.00;;;;;;;3.30;100.00;101715.06;5112093;28;20393;-69
2023/04/06 02:30:37;;;;;;;18.08;11.32;;;;;;;3.37;100.00;101723.50;5112489;28;20085;-70
2023/04/06 02:33:03;;;;;;;16.92;11.15;;;;;;;3.38;100.00;101719.97;5111774;28;20476;-70
2023/04/06 02:35:30;;;;;;;21.55;12.00;;;;;;;3.38;100.00;101719.13;5112436;28;20533;-72
2023/04/06 02:37:55;;;;;;;20.92;11.73;;;;;;;3.39;100.00;101713.78;5112321;28;20024;-71
2023/04/06 02:40:20;;;;;;;21.90;11.43;;;;;;;3.39;100.00;101713.78;5094491;28;20028;-69
2023/04/06 02:42:46;;;;;;;18.63;11.40;;;;;;;3.43;100.00;101711.88;5112445;28;20114;-70
2023/04/06 02:45:11;;;;;;;18.52;11.15;;;;;;;3.42;100.00;101708.38;5094005;28;20035;-70
2023/04/06 02:47:37;;;;;;;19.08;11.43;;;;;;;3.43;100.00;101711.88;5112163;28;20400;-69
2023/04/06 02:50:02;;;;;;;22.98;11.90;;;;;;;3.44;100.00;101695.16;5111419;28;20059;-70
2023/04/06 02:52:28;;;;;;;18.67;11.60;;;;;;;3.46;100.00;101696.81;5112275;28;20095;-70
2023/04/06 02:54:53;;;;;;;17.05;11.15;;;;;;;3.46;100.00;101699.44;5111984;28;20127;-70
2023/04/06 02:57:19;;;;;;;20.27;11.15;;;;;;;3.46;100.00;101701.19;5112111;28;20521;-70
2023/04/06 02:59:44;;;;;;;20.08;11.50;;;;;;;3.46;100.00;101695.94;5093392;28;20084;-70
2023/04/06 03:02:10;;;;;;;19.15;11.50;;;;;;;3.45;100.00;101696.84;5111289;28;20041;-70
2023/04/06 03:04:35;;;;;;;19.55;11.52;;;;;;;3.42;100.00;101689.97;5093705;28;20393;-70
2023/04/06 03:07:01;;;;;;;21.70;12.35;;;;;;;3.42;100.00;101694.34;5111584;28;20035;-70
2023/04/06 03:09:27;;;;;;;23.60;12.80;;;;;;;3.41;100.00;101690.03;5112342;28;20165;-70
2023/04/06 03:11:52;;;;;;;20.77;11.98;;;;;;;3.41;100.00;101684.78;5111999;28;20421;-69
2023/04/06 03:14:21;;;;;;;20.13;11.93;;;;;;;3.39;100.00;101678.72;5093751;28;20039;-70
2023/04/06 03:16:47;;;;;;;21.20;12.73;;;;;;;3.41;100.00;101688.25;5112083;28;20124;-70
2023/04/06 03:19:13;;;;;;;20.33;12.25;;;;;;;3.44;100.00;101685.47;5111705;28;20040;-71
2023/04/06 03:21:38;;;;;;;21.92;12.20;;;;;;;3.47;100.00;101679.22;5094140;28;20032;-70
2023/04/06 03:24:05;;;;;;;20.10;12.80;;;;;;;3.51;100.00;101681.63;5111630;28;20075;-69
2023/04/06 03:26:30;;;;;;;22.60;12.82;;;;;;;3.52;100.00;101672.81;5112139;28;20028;-69
2023/04/06 03:28:55;;;;;;;23.13;12.15;;;;;;;3.56;100.00;101676.16;5111563;28;20096;-69
2023/04/06 03:31:21;;;;;;;22.52;12.77;;;;;;;3.56;100.00;101668.25;5112020;28;20063;-70
2023/04/06 03:33:46;;;;;;;19.42;12.20;;;;;;;3.59;100.00;101675.16;5111716;28;20042;-70
2023/04/06 03:36:12;;;;;;;20.42;12.02;;;;;;;3.59;100.00;101675.16;5111194;28;20461;-70
2023/04/06 03:38:37;;;;;;;21.95;12.02;;;;;;;3.61;100.00;101668.03;5111937;28;20541;-70
2023/04/06 03:41:02;;;;;;;22.98;12.57;;;;;;;3.62;100.00;101667.13;5111874;28;20039;-71
2023/04/06 03:43:28;;;;;;;22.23;12.60;;;;;;;3.64;100.00;101667.88;5112079;28;20023;-70
2023/04/06 03:45:53;;;;;;;24.42;12.43;;;;;;;3.63;100.00;101664.41;5111647;28;20061;-70
2023/04/06 03:48:19;;;;;;;20.60;11.40;;;;;;;3.64;100.00;101660.00;5111353;28;20081;-69
2023/04/06 03:50:44;;;;;;;21.17;12.27;;;;;;;3.65;100.00;101657.28;5111767;28;20038;-69
2023/04/06 03:53:10;;;;;;;23.25;12.68;;;;;;;3.67;100.00;101657.22;5111377;28;20514;-71
2023/04/06 03:55:35;;;;;;;19.17;12.40;;;;;;;3.69;100.00;101658.00;5111758;28;20074;-70
2023/04/06 03:58:01;;;;;;;31.77;13.45;;;;;;;3.72;100.00;101657.84;5111217;28;20457;-69
2023/04/06 04:00:26;;;;;;;21.92;12.35;;;;;;;3.77;100.00;101661.09;5111764;28;20434;-70
2023/04/06 04:02:52;;;;;;;26.15;13.70;;;;;;;3.81;100.00;101659.19;5111256;28;20115;-70
2023/04/06 04:05:17;;;;;;;23.00;13.30;;;;;;;3.85;100.00;101660.72;5111225;28;20031;-70
2023/04/06 04:07:42;;;;;;;20.20;12.75;;;;;;;3.85;100.00;101664.22;5111781;28;20035;-70
2023/04/06 04:10:08;;;;;;;24.00;13.13;;;;;;;3.88;100.00;101650.91;5111378;28;20221;-70
2023/04/06 04:12:34;;;;;;;25.00;13.68;;;;;;;3.92;100.00;101661.28;5112700;28;20172;-70
2023/04/06 04:14:59;;;;;;;22.00;13.20;;;;;;;3.94;100.00;101657.66;5114967;28;20104;-68
2023/04/06 04:17:25;;;;;;;23.92;13.77;;;;;;;3.96;100.00;101655.78;5114961;28;20028;-70
2023/04/06 04:19:50;;;;;;;25.27;14.00;;;;;;;4.01;100.00;101656.41;5115146;28;20036;-69
2023/04/06 04:22:15;;;;;;;25.20;14.45;;;;;;;4.05;100.00;101659.75;5114623;28;20031;-70
2023/04/06 04:24:41;;;;;;;28.58;14.90;;;;;;;4.05;100.00;101659.75;5096807;28;20028;-70
2023/04/06 04:27:06;;;;;;;21.45;13.18;;;;;;;4.05;100.00;101654.47;5114656;28;20037;-69
2023/04/06 04:29:31;;;;;;;27.65;14.77;;;;;;;4.04;100.00;101656.25;5114872;28;20472;-70
2023/04/06 04:31:57;;;;;;;29.48;14.88;;;;;;;4.04;100.00;101650.97;5114716;28;20027;-70
2023/04/06 04:34:25;;;;;;;28.30;15.45;;;;;;;4.06;100.00;101657.03;5114102;28;20055;-70
2023/04/06 04:36:51;;;;;;;26.05;13.95;;;;;;;4.14;100.00;101663.72;5114796;28;20028;-70
2023/04/06 04:39:17;;;;;;;25.52;14.63;;;;;;;4.16;100.00;101651.31;5114541;28;20035;-70
2023/04/06 04:41:42;;;;;;;24.55;14.65;;;;;;;4.16;100.00;101659.19;5114994;28;20396;-70
2023/04/06 04:44:08;;;;;;;25.02;14.68;;;;;;;4.14;100.00;101661.91;5114360;28;20077;-70
2023/04/06 04:46:33;;;;;;;28.70;15.38;;;;;;;4.12;100.00;101655.88;5114554;28;20031;-69
2023/04/06 04:48:58;;;;;;;26.85;14.77;;;;;;;4.12;100.00;101658.50;5114721;28;20042;-70
2023/04/06 04:51:24;;;;;;;26.88;15.02;;;;;;;4.14;100.00;101659.28;5114195;28;20080;-69
2023/04/06 04:53:50;;;;;;;30.23;14.60;;;;;;;4.16;100.00;101657.41;5114572;28;20189;-69
2023/04/06 04:56:16;;;;;;;29.67;15.45;;;;;;;4.17;100.00;101659.13;5114283;28;20080;-69
2023/04/06 04:58:41;;;;;;;39.30;16.00;;;;;;;4.18;100.00;101652.94;5096150;28;20040;-69
2023/04/06 05:01:08;;;;;;;29.10;15.93;;;;;;;4.20;100.00;101653.69;5114297;28;20036;-69
2023/04/06 05:03:35;;;;;;;26.05;16.08;;;;;;;4.24;100.00;101654.41;5115102;28;20118;-69
2023/04/06 05:06:01;;;;;;;34.33;15.55;;;;;;;4.26;100.00;101646.44;5096568;28;20031;-69
2023/04/06 05:08:26;;;;;;;31.02;16.85;;;;;;;4.25;100.00;101650.81;5114012;28;20036;-68
2023/04/06 05:10:52;;;;;;;33.33;16.55;;;;;;;4.26;100.00;101652.53;5095941;28;20063;-68
2023/04/06 05:13:17;;;;;;;26.95;16.63;;;;;;;4.28;100.00;101653.31;5113939;28;20092;-68
2023/04/06 05:15:42;;;;;;;26.67;15.70;;;;;;;4.29;100.00;101644.47;5114222;28;20031;-69
2023/04/06 05:18:09;;;;;;;29.15;16.70;;;;;;;4.30;100.00;101647.94;5113510;28;20163;-70
2023/04/06 05:20:35;;;;;;;31.73;18.27;;;;;;;4.33;100.00;101647.78;5114140;28;20066;-69
2023/04/06 05:23:00;;;;;;;25.38;16.25;;;;;;;4.33;100.00;101639.88;5113805;28;20059;-69
2023/04/06 05:25:26;;;;;;;30.55;17.55;;;;;;;4.36;100.00;101650.28;5113472;28;20111;-69
2023/04/06 05:27:52;;;;;;;29.67;17.50;;;;;;;4.37;100.00;101638.81;5114121;28;20202;-69
2023/04/06 05:30:17;;;;;;;30.83;17.38;;;;;;;4.39;100.00;101645.72;5113575;28;20063;-70
2023/04/06 05:32:44;;;;;;;33.75;17.80;;;;;;;4.44;100.00;101642.84;5113697;28;20560;-70
2023/04/06 05:35:10;;;;;;;30.95;17.83;;;;;;;4.50;100.00;101639.88;5113702;28;20039;-69
2023/04/06 05:37:35;;;;;;;31.50;17.83;;;;;;;4.55;100.00;101637.00;5114078;28;20095;-70
2023/04/06 05:40:00;;;;;;;29.17;17.48;;;;;;;4.57;100.00;101625.44;5096158;27;20132;-70
2023/04/06 05:42:26;;;;;;;30.98;16.88;;;;;;;4.59;100.00;101631.47;5090470;28;20058;-69
2023/04/06 05:44:52;;;;;;;29.27;18.10;;;;;;;4.61;100.00;101628.75;5090565;28;20039;-70
2023/04/06 05:47:17;;;;;;;34.15;19.08;;;;;;;4.62;100.00;101622.56;5089864;28;20036;-72
2023/04/06 05:49:43;;;;;;;36.78;18.42;;;;;;;4.65;100.00;101630.31;5090257;28;20111;-70
2023/04/06 05:52:10;;;;;;;34.90;18.77;;;;;;;4.69;100.00;101623.94;5090104;28;20456;-71
2023/04/06 05:54:36;;;;;;;33.60;18.38;;;;;;;4.72;100.00;101623.78;5105608;28;20060;-72
2023/04/06 05:57:02;;;;;;;31.30;18.95;;;;;;;4.76;100.00;101633.25;5090062;28;20040;-71
2023/04/06 05:59:29;;;;;;;33.05;19.05;;;;;;;4.81;100.00;101627.72;5090233;28;20127;-71
2023/04/06 06:01:54;;;;;;;38.75;19.77;;;;;;;4.84;100.00;101624.06;5090224;28;20048;-71
2023/04/06 06:04:20;;;;;;;38.67;18.92;;;;;;;4.86;100.00;101623.03;5089590;28;20063;-70
2023/04/06 06:06:45;;;;;;;37.88;19.55;;;;;;;4.87;100.00;101621.25;5103094;28;20085;-70
2023/04/06 06:09:11;;;;;;;33.78;18.88;;;;;;;4.91;100.00;101626.28;5105034;28;20039;-71
2023/04/06 06:11:37;;;;;;;37.75;19.83;;;;;;;4.97;100.00;101627.75;5099770;28;20093;-71
2023/04/06 06:14:02;;;;;;;47.20;21.13;;;;;;;5.01;100.00;101629.25;5091758;28;20028;-71
2023/04/06 06:16:27;;;;;;;31.95;19.55;;;;;;;5.07;100.00;101628.91;5091515;28;20038;-70
2023/04/06 06:18:53;;;;;;;36.55;19.98;;;;;;;5.14;100.00;101631.25;5091707;28;20032;-70
2023/04/06 06:21:18;;;;;;;38.03;20.08;;;;;;;5.18;100.00;101628.34;5091451;28;20118;-70
2023/04/06 06:23:44;;;;;;;35.03;20.55;;;;;;;5.25;100.00;101632.31;5073886;28;20147;-70
2023/04/06 06:26:09;;;;;;;37.38;20.20;;;;;;;5.30;100.00;101625.03;5073786;28;20032;-70
2023/04/06 06:28:35;;;;;;;43.10;21.23;;;;;;;5.39;100.00;101630.72;5073218;28;20082;-70
2023/04/06 06:31:00;;;;;;;38.03;20.83;;;;;;;5.47;100.00;101624.06;5091633;28;20032;-70
2023/04/06 06:33:26;;;;;;;42.88;21.52;;;;;;;5.56;100.00;101630.63;5091354;28;20035;-70
2023/04/06 06:35:52;;;;;;;44.67;21.48;;;;;;;5.67;100.00;101631.78;5072864;28;20465;-69
2023/04/06 06:38:17;;;;;;;38.65;22.00;;;;;;;5.78;100.00;101627.59;5090797;28;20032;-68
2023/04/06 06:40:43;;;;;;;49.60;22.58;;;;;;;5.85;100.00;101629.88;5091703;28;20039;-69
2023/04/06 06:43:08;;;;;;;36.75;21.77;;;;;;;5.92;100.00;101629.44;5091439;28;20036;-69
2023/04/06 06:45:33;;;;;;;46.47;22.80;;;;;;;6.00;100.00;101627.25;5072735;28;20507;-69
2023/04/06 06:47:59;;;;;;;39.97;22.98;;;;;;;6.07;100.00;101622.44;5091149;28;20032;-69
2023/04/06 06:50:24;;;;;;;40.03;22.10;;;;;;;6.16;100.00;101627.16;5090956;28;20101;-69
2023/04/06 06:52:50;;;;;;;41.85;23.70;;;;;;;6.24;100.00;101620.56;5091222;28;20125;-69
2023/04/06 06:55:15;;;;;;;38.92;22.60;;;;;;;6.29;100.00;101616.72;5091586;28;20123;-69
2023/04/06 06:57:42;;;;;;;44.78;24.42;;;;;;;6.38;100.00;101617.97;5091172;28;20118;-68
2023/04/06 07:00:08;;;;;;;43.70;23.63;;;;;;;6.43;100.00;101620.31;5091094;28;20051;-70
2023/04/06 07:02:35;;;;;;;44.45;24.20;;;;;;;6.48;100.00;101620.91;5091193;28;20465;-70
2023/04/06 07:05:01;;;;;;;41.22;23.55;;;;;;;6.53;100.00;101618.81;5091468;28;20028;-68
2023/04/06 07:07:27;;;;;;;47.78;23.73;;;;;;;6.57;100.00;101614.19;5090963;28;20484;-68
2023/04/06 07:09:52;;;;;;;43.65;24.30;;;;;;;6.64;100.00;101611.09;5091357;28;20043;-68
2023/04/06 07:12:18;;;;;;;42.88;24.30;;;;;;;6.71;100.00;101617.69;5091543;28;20028;-68
2023/04/06 07:14:43;;;;;;;41.20;24.25;;;;;;;6.82;100.00;101609.09;5090894;28;20405;-68
2023/04/06 07:17:10;;;;;;;41.72;24.60;;;;;;;6.91;100.00;101610.28;5091197;28;20458;-69
2023/04/06 07:19:35;;;;;;;41.35;23.27;;;;;;;6.97;100.00;101609.94;5090721;28;20032;-69
2023/04/06 07:22:02;;;;;;;47.83;23.92;;;;;;;7.02;100.00;101599.91;5090933;28;20081;-69
2023/04/06 07:24:27;;;;;;;38.63;23.25;;;;;;;7.04;100.00;101600.63;5090934;28;20447;-69
2023/04/06 07:26:53;;;;;;;37.45;22.63;;;;;;;7.11;100.00;101600.28;5091304;28;20123;-68
2023/04/06 07:29:18;;;;;;;39.95;22.30;;;;;;;7.14;100.00;101600.06;5090725;28;20141;-69
2023/04/06 07:31:43;;;;;;;33.67;21.92;;;;;;;7.16;100.00;101598.16;5072823;28;20135;-68
2023/04/06 07:34:09;;;;;;;33.47;19.77;;;;;;;7.13;100.00;101591.25;5073116;28;20039;-70
2023/04/06 07:36:34;;;;;;;33.45;20.38;;;;;;;7.18;100.00;101593.63;5090789;28;20089;-70
2023/04/06 07:39:00;;;;;;;31.33;19.30;;;;;;;7.22;100.00;101597.78;5091125;28;20028;-70
2023/04/06 07:41:25;;;;;;;33.78;19.10;;;;;;;7.28;100.00;101597.38;5090537;28;20028;-69
2023/04/06 07:43:50;;;;;;;25.40;17.42;;;;;;;7.29;100.00;101599.09;5091305;28;20042;-70
2023/04/06 07:46:16;;;;;;;26.08;16.83;;;;;;;7.29;100.00;101588.50;5091890;28;20070;-70
2023/04/06 07:48:41;;;;;;;28.90;18.23;;;;;;;7.27;100.00;101592.19;5094523;28;20032;-69
2023/04/06 07:51:07;;;;;;;23.30;14.90;;;;;;;7.20;100.00;101597.88;5076913;28;20040;-68
2023/04/06 07:53:32;;;;;;;24.77;15.60;;;;;;;7.24;100.00;101586.16;5093814;28;20052;-69
2023/04/06 07:55:58;;;;;;;26.25;16.15;;;;;;;7.26;100.00;101591.34;5094779;28;20048;-68
2023/04/06 07:58:24;;;;;;;29.15;16.70;;;;;;;7.32;100.00;101593.59;5094484;28;20028;-68
2023/04/06 08:00:49;;;;;;;32.58;16.98;;;;;;;7.43;100.00;101605.28;5076593;28;20032;-71
2023/04/06 08:03:16;;;;;;;28.52;16.95;;;;;;;7.46;100.00;101594.47;5094602;28;20184;-69
2023/04/06 08:05:42;;;;;;;28.40;16.80;;;;;;;7.48;100.00;101582.84;5093954;28;20097;-68
2023/04/06 08:08:07;;;;;;;22.75;15.57;;;;;;;7.53;100.00;101590.50;5094275;28;20493;-68
2023/04/06 08:10:34;;;;;;;23.65;15.68;;;;;;;7.52;100.00;101588.78;5093821;28;20067;-68
2023/04/06 08:12:59;;;;;;;24.48;14.65;;;;;;;7.55;100.00;101592.09;5094153;28;20028;-68
2023/04/06 08:15:25;;;;;;;24.02;13.75;;;;;;;7.64;100.00;101605.66;5093860;28;20024;-71
2023/04/06 08:17:50;;;;;;;22.42;13.50;;;;;;;7.66;100.00;101607.28;5094191;28;20370;-69
2023/04/06 08:20:16;;;;;;;19.45;13.00;;;;;;;7.56;100.00;101600.88;5094117;28;20078;-69
2023/04/06 08:22:41;;;;;;;21.25;13.43;;;;;;;7.61;100.00;101600.56;5094208;28;20092;-73
2023/04/06 08:25:07;;;;;;;27.63;15.43;;;;;;;7.58;100.00;101601.63;5094224;28;20047;-72
2023/04/06 08:27:32;;;;;;;22.23;14.70;;;;;;;7.57;100.00;101603.44;5075624;28;20445;-68
2023/04/06 08:29:58;;;;;;;22.48;15.05;;;;;;;7.66;100.00;101604.63;5075828;28;20080;-69
2023/04/06 08:32:24;;;;;;;24.02;15.07;;;;;;;7.74;100.00;101601.47;5094263;28;20043;-69
2023/04/06 08:34:53;;;;;;;27.33;14.85;;;;;;;7.74;100.00;101604.94;5093940;28;20111;-71
2023/04/06 08:37:19;;;;;;;22.73;12.98;;;;;;;7.74;100.00;101598.81;5103641;27;20038;-69
2023/04/06 08:39:44;;;;;;;19.35;12.77;;;;;;;7.72;100.00;101600.72;5092439;28;20036;-69
2023/04/06 08:42:33;;;;;;;21.90;13.32;;;;;;;7.72;100.00;101606.03;5111242;28;20067;-71
2023/04/06 08:44:59;;;;;;;21.55;13.80;;;;;;;7.76;100.00;101594.25;5111585;28;20036;-70
2023/04/06 08:47:25;;;;;;;24.70;14.48;;;;;;;7.75;100.00;101596.06;5110854;28;20081;-70
2023/04/06 08:49:52;;;;;;;23.33;14.80;;;;;;;7.77;100.00;101596.78;5110985;28;20528;-70
2023/04/06 08:52:18;;;;;;;26.00;14.45;;;;;;;7.84;100.00;101597.25;5111354;28;20036;-70
2023/04/06 08:54:44;;;;;;;29.77;15.90;;;;;;;7.84;100.00;101588.47;5110602;28;20485;-70
2023/04/06 08:57:10;;;;;;;27.05;13.43;;;;;;;7.83;100.00;101595.53;5092300;28;20088;-70
2023/04/06 08:59:36;;;;;;;25.17;12.32;;;;;;;7.80;100.00;101590.44;5110114;28;20043;-71
2023/04/06 09:02:05;;;;;;;20.13;11.23;;;;;;;7.78;100.00;101592.38;5108469;28;20036;-70
2023/04/06 09:04:33;;;;;;;17.63;11.00;;;;;;;7.75;100.00;101593.41;5107554;28;20084;-69
2023/04/06 09:06:59;;;;;;;24.58;8.95;;;;;;;7.65;100.00;101592.31;5113110;28;20115;-70
2023/04/06 09:09:24;;;;;;;15.05;8.50;;;;;;;7.63;100.00;101594.22;5113294;28;20042;-70
2023/04/06 09:11:51;;;;;;;17.55;8.00;;;;;;;7.60;100.00;101594.44;5113129;28;20024;-70
2023/04/06 09:14:32;;;;;;;12.02;7.20;;;;;;;7.53;100.00;101595.78;5113513;28;20031;-70
2023/04/06 09:16:58;;;;;;;13.45;7.97;;;;;;;7.55;100.00;101589.44;5113191;28;20051;-71
2023/04/06 09:19:23;;;;;;;12.68;7.28;;;;;;;7.58;100.00;101593.66;5113433;28;20486;-69
2023/04/06 09:21:49;;;;;;;11.63;6.75;;;;;;;7.30;100.00;101590.19;5113107;28;20377;-69
2023/04/06 09:24:14;;;;;;;14.88;7.53;;;;;;;7.33;100.00;101589.13;5112967;28;20047;-70
2023/04/06 09:26:47;;;;;;;11.95;7.53;;;;;;;7.21;100.00;101591.63;5112886;28;20042;-70
2023/04/06 09:29:23;;;;;;;13.55;8.07;;;;;;;7.05;100.00;101597.06;5113206;28;20123;-70
2023/04/06 09:31:48;;;;;;;16.00;7.97;;;;;;;6.96;100.00;101586.22;5094676;28;20365;-69
2023/04/06 09:34:22;;;;;;;15.38;8.13;;;;;;;6.91;100.00;101586.47;5112937;28;20034;-70
2023/04/06 09:36:48;;;;;;;13.00;7.35;;;;;;;6.85;100.00;101589.53;5094403;28;20115;-73
2023/04/06 09:39:13;;;;;;;13.23;7.55;;;;;;;6.88;100.00;101587.56;5113196;28;20106;-71
2023/04/06 09:41:39;;;;;;;16.15;8.18;;;;;;;6.85;100.00;101579.81;5113086;28;20112;-71
2023/04/06 09:44:09;;;;;;;14.82;8.50;;;;;;;6.95;100.00;101581.88;5113063;28;20060;-71
2023/04/06 09:46:36;;;;;;;16.30;9.60;;;;;;;6.97;100.00;101575.53;5112536;28;20067;-71
2023/04/06 09:49:03;;;;;;;17.83;9.80;;;;;;;6.89;100.00;101576.00;5112607;28;20051;-70
2023/04/06 09:51:31;;;;;;;18.10;9.25;;;;;;;6.80;100.00;101573.09;5112967;28;20115;-71
2023/04/06 09:54:03;;;;;;;17.42;9.95;;;;;;;6.79;100.00;101572.25;5113024;28;20477;-71
2023/04/06 09:56:37;;;;;;;17.33;9.18;;;;;;;6.78;100.00;101577.66;5095596;28;20043;-71
2023/04/06 09:59:12;;;;;;;15.07;8.93;;;;;;;6.74;100.00;101578.78;5112936;28;20032;-71
2023/04/06 10:01:39;;;;;;;18.27;9.73;;;;;;;6.64;100.00;101566.13;5112160;28;20024;-71
2023/04/06 10:04:36;;;;;;;15.65;9.98;;;;;;;6.60;100.00;101564.63;5112829;28;20039;-71
2023/04/06 10:07:02;;;;;;;14.85;9.63;;;;;;;6.61;100.00;101568.09;5111858;28;20043;-71
2023/04/06 10:09:35;;;;;;;15.18;9.80;;;;;;;6.62;100.00;101567.16;5094349;28;20155;-69
2023/04/06 10:12:02;;;;;;;16.25;9.80;;;;;;;6.52;100.00;101565.09;5112237;28;20036;-70
2023/04/06 10:14:28;;;;;;;19.40;10.70;;;;;;;6.54;100.00;101565.00;5112440;28;20473;-72
2023/04/06 10:16:53;;;;;;;18.05;9.52;;;;;;;6.55;100.00;101560.56;5111920;28;20057;-71
2023/04/06 10:19:25;;;;;;;14.27;9.75;;;;;;;6.56;100.00;101560.47;5094563;28;20032;-71
2023/04/06 10:21:54;;;;;;;15.60;11.25;;;;;;;6.64;100.00;101557.34;5111908;28;20102;-71
2023/04/06 10:24:20;;;;;;;17.95;10.65;;;;;;;6.67;100.00;101554.50;5112597;28;20027;-71
2023/04/06 10:27:04;;;;;;;14.80;10.32;;;;;;;6.63;100.00;101553.84;5111950;28;20123;-69
2023/04/06 10:29:45;;;;;;;18.85;10.65;;;;;;;6.68;100.00;101551.75;5112438;28;20047;-71
2023/04/06 10:32:10;;;;;;;14.13;9.77;;;;;;;6.73;100.00;101542.69;5112200;28;20049;-71
2023/04/06 10:34:35;;;;;;;17.73;10.63;;;;;;;6.71;100.00;101543.63;5093473;28;20071;-70
2023/04/06 10:37:13;;;;;;;18.27;10.98;;;;;;;6.75;100.00;101541.66;5101280;28;20135;-70
2023/04/06 10:40:00;;;;;;;14.02;9.85;;;;;;;6.75;100.00;101536.38;5088447;28;20066;-70
2023/04/06 10:42:36;;;;;;;18.40;11.63;;;;;;;6.86;100.00;101540.97;5089010;28;20119;-69
2023/04/06 10:45:01;;;;;;;18.95;11.55;;;;;;;6.97;100.00;101542.91;5088727;28;20491;-70
2023/04/06 10:47:26;;;;;;;17.25;11.80;;;;;;;7.03;100.00;101539.88;5089241;28;20111;-69
2023/04/06 10:49:53;;;;;;;17.63;11.85;;;;;;;6.93;100.00;101534.34;5088277;28;20040;-70
2023/04/06 10:52:18;;;;;;;17.15;11.45;;;;;;;6.95;100.00;101531.59;5088897;28;20085;-70
2023/04/06 10:54:44;;;;;;;20.77;12.20;;;;;;;6.94;100.00;101529.88;5088246;28;20550;-69
2023/04/06 10:57:10;;;;;;;16.67;12.02;;;;;;;6.96;100.00;101525.38;5088674;28;20044;-69
2023/04/06 10:59:35;;;;;;;15.10;11.73;;;;;;;6.96;100.00;101523.56;5101217;28;20027;-68
2023/04/06 11:02:01;;;;;;;14.38;9.18;;;;;;;6.95;100.00;101523.66;5107423;28;20028;-71
2023/04/06 11:04:26;;;;;;;18.48;10.98;;;;;;;6.92;100.00;101521.22;5111709;28;20031;-69